sensor_id;sensor_type;location;lat;lon;timestamp;P1;durP1;ratioP1;P2;durP2;ratioP2
31210;SDS011;17836;50.948;3.946;2022-08-01T00:01:02;2.20;;;1.57;;
31210;SDS011;17836;50.948;3.946;2022-08-01T00:03:28;1.90;;;1.17;;
31210;SDS011;17836;50.948;3.946;2022-08-01T00:05:53;5.50;;;1.67;;
31210;SDS011;17836;50.948;3.946;2022-08-01T00:08:18;2.70;;;1.55;;
31210;SDS011;17836;50.948;3.946;2022-08-01T00:10:44;3.13;;;1.80;;
31210;SDS011;17836;50.948;3.946;2022-08-01T00:13:09;3.03;;;1.63;;
31210;SDS011;17836;50.948;3.946;2022-08-01T00:15:35;3.63;;;1.50;;
31210;SDS011;17836;50.948;3.946;2022-08-01T00:18:00;2.00;;;1.45;;
31210;SDS011;17836;50.948;3.946;2022-08-01T00:20:26;2.35;;;1.60;;
31210;SDS011;17836;50.948;3.946;2022-08-01T00:22:51;2.90;;;1.40;;
31210;SDS011;17836;50.948;3.946;2022-08-01T00:25:16;1.63;;;1.47;;
31210;SDS011;17836;50.948;3.946;2022-08-01T00:27:41;1.80;;;1.47;;
31210;SDS011;17836;50.948;3.946;2022-08-01T00:30:07;2.77;;;1.50;;
31210;SDS011;17836;50.948;3.946;2022-08-01T00:32:32;3.75;;;1.58;;
31210;SDS011;17836;50.948;3.946;2022-08-01T00:34:57;3.53;;;1.50;;
31210;SDS011;17836;50.948;3.946;2022-08-01T00:37:23;9.83;;;2.03;;
31210;SDS011;17836;50.948;3.946;2022-08-01T00:39:48;2.97;;;1.93;;
31210;SDS011;17836;50.948;3.946;2022-08-01T00:42:13;1.70;;;1.50;;
31210;SDS011;17836;50.948;3.946;2022-08-01T00:44:39;1.90;;;1.58;;
31210;SDS011;17836;50.948;3.946;2022-08-01T00:47:05;3.55;;;2.08;;
31210;SDS011;17836;50.948;3.946;2022-08-01T00:49:31;3.22;;;1.52;;
31210;SDS011;17836;50.948;3.946;2022-08-01T00:51:56;4.10;;;2.38;;
31210;SDS011;17836;50.948;3.946;2022-08-01T00:54:23;2.75;;;2.05;;
31210;SDS011;17836;50.948;3.946;2022-08-01T00:56:48;3.70;;;2.05;;
31210;SDS011;17836;50.948;3.946;2022-08-01T00:59:14;3.05;;;2.03;;
31210;SDS011;17836;50.948;3.946;2022-08-01T01:01:42;6.63;;;2.72;;
31210;SDS011;17836;50.948;3.946;2022-08-01T01:04:07;3.30;;;2.50;;
31210;SDS011;17836;50.948;3.946;2022-08-01T01:11:33;4.25;;;3.08;;
31210;SDS011;17836;50.948;3.946;2022-08-01T01:14:02;3.30;;;2.45;;
31210;SDS011;17836;50.948;3.946;2022-08-01T01:16:29;8.25;;;3.10;;
31210;SDS011;17836;50.948;3.946;2022-08-01T01:18:57;6.40;;;3.15;;
31210;SDS011;17836;50.948;3.946;2022-08-01T01:21:35;5.68;;;3.67;;
31210;SDS011;17836;50.948;3.946;2022-08-01T01:26:37;5.97;;;2.67;;
31210;SDS011;17836;50.948;3.946;2022-08-01T01:29:09;2.80;;;2.00;;
31210;SDS011;17836;50.948;3.946;2022-08-01T01:31:39;2.88;;;2.58;;
31210;SDS011;17836;50.948;3.946;2022-08-01T01:34:06;5.30;;;2.85;;
31210;SDS011;17836;50.948;3.946;2022-08-01T01:36:32;3.97;;;3.00;;
31210;SDS011;17836;50.948;3.946;2022-08-01T01:38:59;5.47;;;3.10;;
31210;SDS011;17836;50.948;3.946;2022-08-01T01:41:25;6.13;;;3.75;;
31210;SDS011;17836;50.948;3.946;2022-08-01T01:43:50;3.00;;;2.70;;
31210;SDS011;17836;50.948;3.946;2022-08-01T01:46:17;5.72;;;3.13;;
31210;SDS011;17836;50.948;3.946;2022-08-01T01:48:44;4.10;;;3.70;;
31210;SDS011;17836;50.948;3.946;2022-08-01T01:51:10;5.60;;;3.72;;
31210;SDS011;17836;50.948;3.946;2022-08-01T01:53:36;6.60;;;3.85;;
31210;SDS011;17836;50.948;3.946;2022-08-01T01:56:02;6.25;;;4.05;;
31210;SDS011;17836;50.948;3.946;2022-08-01T01:58:28;7.07;;;3.85;;
31210;SDS011;17836;50.948;3.946;2022-08-01T02:00:55;5.60;;;4.18;;
31210;SDS011;17836;50.948;3.946;2022-08-01T02:03:24;7.55;;;4.10;;
31210;SDS011;17836;50.948;3.946;2022-08-01T02:05:51;7.15;;;4.70;;
31210;SDS011;17836;50.948;3.946;2022-08-01T02:08:18;8.38;;;5.07;;
31210;SDS011;17836;50.948;3.946;2022-08-01T02:10:44;10.73;;;5.75;;
31210;SDS011;17836;50.948;3.946;2022-08-01T02:13:33;8.82;;;5.60;;
31210;SDS011;17836;50.948;3.946;2022-08-01T02:16:00;10.07;;;6.95;;
31210;SDS011;17836;50.948;3.946;2022-08-01T02:18:25;8.25;;;7.28;;
31210;SDS011;17836;50.948;3.946;2022-08-01T02:20:51;8.60;;;6.25;;
31210;SDS011;17836;50.948;3.946;2022-08-01T02:23:17;8.73;;;6.30;;
31210;SDS011;17836;50.948;3.946;2022-08-01T02:25:45;9.40;;;5.95;;
31210;SDS011;17836;50.948;3.946;2022-08-01T02:28:15;14.38;;;7.18;;
31210;SDS011;17836;50.948;3.946;2022-08-01T02:30:43;9.52;;;7.15;;
31210;SDS011;17836;50.948;3.946;2022-08-01T02:33:21;12.27;;;7.60;;
31210;SDS011;17836;50.948;3.946;2022-08-01T02:35:52;12.43;;;7.53;;
31210;SDS011;17836;50.948;3.946;2022-08-01T02:38:20;12.43;;;8.73;;
31210;SDS011;17836;50.948;3.946;2022-08-01T02:40:47;11.10;;;8.00;;
31210;SDS011;17836;50.948;3.946;2022-08-01T02:43:15;15.23;;;8.77;;
31210;SDS011;17836;50.948;3.946;2022-08-01T02:45:43;12.73;;;8.93;;
31210;SDS011;17836;50.948;3.946;2022-08-01T02:48:11;13.02;;;9.02;;
31210;SDS011;17836;50.948;3.946;2022-08-01T02:50:37;12.63;;;9.00;;
31210;SDS011;17836;50.948;3.946;2022-08-01T02:53:02;13.07;;;8.85;;
31210;SDS011;17836;50.948;3.946;2022-08-01T02:55:28;15.30;;;9.73;;
31210;SDS011;17836;50.948;3.946;2022-08-01T02:57:55;16.77;;;7.72;;
31210;SDS011;17836;50.948;3.946;2022-08-01T03:00:21;7.15;;;6.18;;
31210;SDS011;17836;50.948;3.946;2022-08-01T03:02:47;5.97;;;4.40;;
31210;SDS011;17836;50.948;3.946;2022-08-01T03:05:13;6.68;;;4.40;;
31210;SDS011;17836;50.948;3.946;2022-08-01T03:07:39;4.05;;;3.47;;
31210;SDS011;17836;50.948;3.946;2022-08-01T03:10:05;5.72;;;4.18;;
31210;SDS011;17836;50.948;3.946;2022-08-01T03:12:32;7.63;;;4.50;;
31210;SDS011;17836;50.948;3.946;2022-08-01T03:14:58;7.90;;;4.72;;
31210;SDS011;17836;50.948;3.946;2022-08-01T03:17:25;8.85;;;4.78;;
31210;SDS011;17836;50.948;3.946;2022-08-01T03:19:52;6.22;;;4.10;;
31210;SDS011;17836;50.948;3.946;2022-08-01T03:22:17;7.18;;;4.78;;
31210;SDS011;17836;50.948;3.946;2022-08-01T03:24:44;7.57;;;4.90;;
31210;SDS011;17836;50.948;3.946;2022-08-01T03:27:11;9.10;;;5.78;;
31210;SDS011;17836;50.948;3.946;2022-08-01T03:29:39;8.15;;;5.18;;
31210;SDS011;17836;50.948;3.946;2022-08-01T03:32:05;8.48;;;5.47;;
31210;SDS011;17836;50.948;3.946;2022-08-01T03:34:31;5.93;;;5.18;;
31210;SDS011;17836;50.948;3.946;2022-08-01T03:37:12;9.82;;;6.05;;
31210;SDS011;17836;50.948;3.946;2022-08-01T03:39:40;8.00;;;5.47;;
31210;SDS011;17836;50.948;3.946;2022-08-01T03:42:09;5.57;;;4.13;;
31210;SDS011;17836;50.948;3.946;2022-08-01T03:44:37;9.65;;;4.97;;
31210;SDS011;17836;50.948;3.946;2022-08-01T03:47:05;6.72;;;5.70;;
31210;SDS011;17836;50.948;3.946;2022-08-01T03:49:32;7.30;;;5.55;;
31210;SDS011;17836;50.948;3.946;2022-08-01T03:51:59;10.65;;;5.40;;
31210;SDS011;17836;50.948;3.946;2022-08-01T03:54:28;8.85;;;5.07;;
31210;SDS011;17836;50.948;3.946;2022-08-01T03:56:54;7.05;;;5.57;;
31210;SDS011;17836;50.948;3.946;2022-08-01T03:59:20;9.30;;;5.68;;
31210;SDS011;17836;50.948;3.946;2022-08-01T04:01:45;6.65;;;5.82;;
31210;SDS011;17836;50.948;3.946;2022-08-01T04:04:12;6.68;;;5.18;;
31210;SDS011;17836;50.948;3.946;2022-08-01T04:06:38;8.63;;;4.55;;
31210;SDS011;17836;50.948;3.946;2022-08-01T04:09:03;6.45;;;4.70;;
31210;SDS011;17836;50.948;3.946;2022-08-01T04:11:28;9.02;;;5.03;;
31210;SDS011;17836;50.948;3.946;2022-08-01T04:13:54;4.93;;;4.43;;
31210;SDS011;17836;50.948;3.946;2022-08-01T04:16:20;4.82;;;4.35;;
31210;SDS011;17836;50.948;3.946;2022-08-01T04:18:45;7.22;;;5.43;;
31210;SDS011;17836;50.948;3.946;2022-08-01T04:21:10;7.80;;;4.63;;
31210;SDS011;17836;50.948;3.946;2022-08-01T04:23:36;7.63;;;4.50;;
31210;SDS011;17836;50.948;3.946;2022-08-01T04:26:02;5.80;;;4.55;;
31210;SDS011;17836;50.948;3.946;2022-08-01T04:28:29;5.10;;;4.10;;
31210;SDS011;17836;50.948;3.946;2022-08-01T04:30:55;4.45;;;3.67;;
31210;SDS011;17836;50.948;3.946;2022-08-01T04:33:21;4.13;;;3.63;;
31210;SDS011;17836;50.948;3.946;2022-08-01T04:35:50;4.32;;;3.30;;
31210;SDS011;17836;50.948;3.946;2022-08-01T04:38:17;4.00;;;3.28;;
31210;SDS011;17836;50.948;3.946;2022-08-01T04:40:44;4.25;;;2.95;;
31210;SDS011;17836;50.948;3.946;2022-08-01T04:43:10;6.20;;;3.20;;
31210;SDS011;17836;50.948;3.946;2022-08-01T04:45:36;3.97;;;3.25;;
31210;SDS011;17836;50.948;3.946;2022-08-01T04:48:01;4.32;;;3.30;;
31210;SDS011;17836;50.948;3.946;2022-08-01T04:50:31;4.20;;;3.20;;
31210;SDS011;17836;50.948;3.946;2022-08-01T04:52:56;4.35;;;3.53;;
31210;SDS011;17836;50.948;3.946;2022-08-01T04:55:22;4.30;;;3.37;;
31210;SDS011;17836;50.948;3.946;2022-08-01T04:57:47;4.40;;;3.10;;
31210;SDS011;17836;50.948;3.946;2022-08-01T05:00:13;5.47;;;3.30;;
31210;SDS011;17836;50.948;3.946;2022-08-01T05:02:41;4.07;;;2.95;;
31210;SDS011;17836;50.948;3.946;2022-08-01T05:05:07;5.07;;;3.30;;
31210;SDS011;17836;50.948;3.946;2022-08-01T05:07:32;5.03;;;2.78;;
31210;SDS011;17836;50.948;3.946;2022-08-01T05:09:58;3.38;;;2.70;;
31210;SDS011;17836;50.948;3.946;2022-08-01T05:12:23;3.47;;;2.88;;
31210;SDS011;17836;50.948;3.946;2022-08-01T05:14:49;2.93;;;2.50;;
31210;SDS011;17836;50.948;3.946;2022-08-01T05:17:14;3.40;;;3.10;;
31210;SDS011;17836;50.948;3.946;2022-08-01T05:19:39;3.63;;;2.37;;
31210;SDS011;17836;50.948;3.946;2022-08-01T05:22:07;2.80;;;2.53;;
31210;SDS011;17836;50.948;3.946;2022-08-01T05:24:33;3.47;;;3.08;;
31210;SDS011;17836;50.948;3.946;2022-08-01T05:26:59;3.90;;;2.83;;
31210;SDS011;17836;50.948;3.946;2022-08-01T05:29:24;3.63;;;3.03;;
31210;SDS011;17836;50.948;3.946;2022-08-01T05:31:50;3.25;;;2.75;;
31210;SDS011;17836;50.948;3.946;2022-08-01T05:34:15;4.47;;;3.17;;
31210;SDS011;17836;50.948;3.946;2022-08-01T05:36:41;3.83;;;3.17;;
31210;SDS011;17836;50.948;3.946;2022-08-01T05:39:07;3.90;;;2.58;;
31210;SDS011;17836;50.948;3.946;2022-08-01T05:41:35;2.97;;;2.40;;
31210;SDS011;17836;50.948;3.946;2022-08-01T05:44:01;4.07;;;3.00;;
31210;SDS011;17836;50.948;3.946;2022-08-01T05:46:26;2.83;;;2.53;;
31210;SDS011;17836;50.948;3.946;2022-08-01T05:48:52;3.00;;;2.22;;
31210;SDS011;17836;50.948;3.946;2022-08-01T05:51:17;2.90;;;2.45;;
31210;SDS011;17836;50.948;3.946;2022-08-01T05:53:43;2.90;;;2.57;;
31210;SDS011;17836;50.948;3.946;2022-08-01T05:56:09;2.42;;;2.15;;
31210;SDS011;17836;50.948;3.946;2022-08-01T05:58:34;2.67;;;2.28;;
31210;SDS011;17836;50.948;3.946;2022-08-01T06:00:59;3.33;;;2.47;;
31210;SDS011;17836;50.948;3.946;2022-08-01T06:03:25;3.30;;;2.50;;
31210;SDS011;17836;50.948;3.946;2022-08-01T06:05:53;4.03;;;2.23;;
31210;SDS011;17836;50.948;3.946;2022-08-01T06:08:18;3.13;;;2.58;;
31210;SDS011;17836;50.948;3.946;2022-08-01T06:10:43;4.90;;;2.70;;
31210;SDS011;17836;50.948;3.946;2022-08-01T06:13:08;2.87;;;2.40;;
31210;SDS011;17836;50.948;3.946;2022-08-01T06:15:34;3.40;;;2.40;;
31210;SDS011;17836;50.948;3.946;2022-08-01T06:17:59;4.67;;;2.90;;
31210;SDS011;17836;50.948;3.946;2022-08-01T06:20:25;3.50;;;2.80;;
31210;SDS011;17836;50.948;3.946;2022-08-01T06:22:50;3.40;;;2.10;;
31210;SDS011;17836;50.948;3.946;2022-08-01T06:25:19;2.97;;;1.70;;
31210;SDS011;17836;50.948;3.946;2022-08-01T06:27:44;1.93;;;1.70;;
31210;SDS011;17836;50.948;3.946;2022-08-01T06:30:12;3.63;;;1.75;;
31210;SDS011;17836;50.948;3.946;2022-08-01T06:32:37;1.95;;;1.65;;
31210;SDS011;17836;50.948;3.946;2022-08-01T06:35:03;2.30;;;2.10;;
31210;SDS011;17836;50.948;3.946;2022-08-01T06:37:29;2.42;;;1.50;;
31210;SDS011;17836;50.948;3.946;2022-08-01T06:40:01;2.25;;;1.50;;
31210;SDS011;17836;50.948;3.946;2022-08-01T06:42:27;2.47;;;1.48;;
31210;SDS011;17836;50.948;3.946;2022-08-01T06:44:52;2.00;;;1.90;;
31210;SDS011;17836;50.948;3.946;2022-08-01T06:47:18;1.43;;;0.80;;
31210;SDS011;17836;50.948;3.946;2022-08-01T06:49:43;1.38;;;1.05;;
31210;SDS011;17836;50.948;3.946;2022-08-01T06:52:08;0.83;;;0.80;;
31210;SDS011;17836;50.948;3.946;2022-08-01T06:54:34;0.93;;;0.60;;
31210;SDS011;17836;50.948;3.946;2022-08-01T06:56:59;2.28;;;0.95;;
31210;SDS011;17836;50.948;3.946;2022-08-01T06:59:25;1.00;;;0.60;;
31210;SDS011;17836;50.948;3.946;2022-08-01T07:01:50;2.00;;;0.80;;
31210;SDS011;17836;50.948;3.946;2022-08-01T07:04:15;1.43;;;0.90;;
31210;SDS011;17836;50.948;3.946;2022-08-01T07:06:43;1.87;;;1.20;;
31210;SDS011;17836;50.948;3.946;2022-08-01T07:09:08;1.58;;;0.95;;
31210;SDS011;17836;50.948;3.946;2022-08-01T07:11:33;0.87;;;0.83;;
31210;SDS011;17836;50.948;3.946;2022-08-01T07:13:58;1.50;;;0.60;;
31210;SDS011;17836;50.948;3.946;2022-08-01T07:16:24;0.60;;;0.60;;
31210;SDS011;17836;50.948;3.946;2022-08-01T07:18:49;0.57;;;0.50;;
31210;SDS011;17836;50.948;3.946;2022-08-01T07:21:15;0.45;;;0.45;;
31210;SDS011;17836;50.948;3.946;2022-08-01T07:23:40;0.55;;;0.50;;
31210;SDS011;17836;50.948;3.946;2022-08-01T07:26:06;0.77;;;0.60;;
31210;SDS011;17836;50.948;3.946;2022-08-01T07:28:32;0.57;;;0.57;;
31210;SDS011;17836;50.948;3.946;2022-08-01T07:30:57;1.67;;;0.60;;
31210;SDS011;17836;50.948;3.946;2022-08-01T07:33:23;0.80;;;0.70;;
31210;SDS011;17836;50.948;3.946;2022-08-01T07:35:48;0.73;;;0.50;;
31210;SDS011;17836;50.948;3.946;2022-08-01T07:38:14;0.52;;;0.50;;
31210;SDS011;17836;50.948;3.946;2022-08-01T07:40:41;0.73;;;0.70;;
31210;SDS011;17836;50.948;3.946;2022-08-01T07:43:07;1.63;;;0.80;;
31210;SDS011;17836;50.948;3.946;2022-08-01T07:45:34;1.13;;;1.00;;
31210;SDS011;17836;50.948;3.946;2022-08-01T07:48:04;1.35;;;1.08;;
31210;SDS011;17836;50.948;3.946;2022-08-01T07:50:29;1.77;;;1.13;;
31210;SDS011;17836;50.948;3.946;2022-08-01T07:52:55;2.92;;;2.25;;
31210;SDS011;17836;50.948;3.946;2022-08-01T07:55:20;2.22;;;1.42;;
31210;SDS011;17836;50.948;3.946;2022-08-01T07:57:46;1.73;;;1.02;;
31210;SDS011;17836;50.948;3.946;2022-08-01T08:00:11;0.90;;;0.90;;
31210;SDS011;17836;50.948;3.946;2022-08-01T08:02:37;1.30;;;0.88;;
31210;SDS011;17836;50.948;3.946;2022-08-01T08:05:02;1.23;;;0.97;;
31210;SDS011;17836;50.948;3.946;2022-08-01T08:07:28;2.17;;;0.50;;
31210;SDS011;17836;50.948;3.946;2022-08-01T08:09:53;0.60;;;0.60;;
31210;SDS011;17836;50.948;3.946;2022-08-01T08:12:19;1.30;;;0.73;;
31210;SDS011;17836;50.948;3.946;2022-08-01T08:14:44;2.53;;;0.70;;
31210;SDS011;17836;50.948;3.946;2022-08-01T08:17:09;1.10;;;1.00;;
31210;SDS011;17836;50.948;3.946;2022-08-01T08:19:34;2.40;;;1.17;;
31210;SDS011;17836;50.948;3.946;2022-08-01T08:22:02;1.70;;;1.20;;
31210;SDS011;17836;50.948;3.946;2022-08-01T08:24:27;1.98;;;1.88;;
31210;SDS011;17836;50.948;3.946;2022-08-01T08:26:53;2.93;;;2.60;;
31210;SDS011;17836;50.948;3.946;2022-08-01T08:29:19;2.17;;;1.92;;
31210;SDS011;17836;50.948;3.946;2022-08-01T08:31:45;1.83;;;1.73;;
31210;SDS011;17836;50.948;3.946;2022-08-01T08:34:10;2.60;;;2.40;;
31210;SDS011;17836;50.948;3.946;2022-08-01T08:36:35;2.88;;;2.67;;
31210;SDS011;17836;50.948;3.946;2022-08-01T08:39:01;5.55;;;5.15;;
31210;SDS011;17836;50.948;3.946;2022-08-01T08:41:27;4.10;;;3.80;;
31210;SDS011;17836;50.948;3.946;2022-08-01T08:43:53;3.15;;;2.85;;
31210;SDS011;17836;50.948;3.946;2022-08-01T08:46:18;2.83;;;2.30;;
31210;SDS011;17836;50.948;3.946;2022-08-01T08:48:44;1.90;;;1.10;;
31210;SDS011;17836;50.948;3.946;2022-08-01T08:51:10;1.03;;;0.73;;
31210;SDS011;17836;50.948;3.946;2022-08-01T08:53:36;0.90;;;0.63;;
31210;SDS011;17836;50.948;3.946;2022-08-01T08:56:03;0.80;;;0.35;;
31210;SDS011;17836;50.948;3.946;2022-08-01T08:58:31;0.20;;;0.20;;
31210;SDS011;17836;50.948;3.946;2022-08-01T09:01:02;0.57;;;0.47;;
31210;SDS011;17836;50.948;3.946;2022-08-01T09:03:29;1.00;;;0.50;;
31210;SDS011;17836;50.948;3.946;2022-08-01T09:05:55;0.40;;;0.40;;
31210;SDS011;17836;50.948;3.946;2022-08-01T09:08:20;0.63;;;0.33;;
31210;SDS011;17836;50.948;3.946;2022-08-01T09:10:45;0.60;;;0.40;;
31210;SDS011;17836;50.948;3.946;2022-08-01T09:13:13;0.75;;;0.60;;
31210;SDS011;17836;50.948;3.946;2022-08-01T09:15:43;1.48;;;1.20;;
31210;SDS011;17836;50.948;3.946;2022-08-01T09:23:31;1.33;;;1.23;;
31210;SDS011;17836;50.948;3.946;2022-08-01T09:25:56;2.42;;;2.00;;
31210;SDS011;17836;50.948;3.946;2022-08-01T09:28:26;1.37;;;1.27;;
31210;SDS011;17836;50.948;3.946;2022-08-01T09:30:51;1.50;;;1.20;;
31210;SDS011;17836;50.948;3.946;2022-08-01T09:33:17;1.45;;;1.33;;
31210;SDS011;17836;50.948;3.946;2022-08-01T09:35:42;1.67;;;1.57;;
31210;SDS011;17836;50.948;3.946;2022-08-01T09:40:44;2.00;;;1.90;;
31210;SDS011;17836;50.948;3.946;2022-08-01T09:43:10;2.20;;;2.00;;
31210;SDS011;17836;50.948;3.946;2022-08-01T09:45:35;2.75;;;2.55;;
31210;SDS011;17836;50.948;3.946;2022-08-01T09:48:05;2.42;;;2.22;;
31210;SDS011;17836;50.948;3.946;2022-08-01T09:50:38;2.35;;;1.90;;
31210;SDS011;17836;50.948;3.946;2022-08-01T09:53:03;1.55;;;1.23;;
31210;SDS011;17836;50.948;3.946;2022-08-01T09:55:29;1.13;;;0.90;;
31210;SDS011;17836;50.948;3.946;2022-08-01T09:57:55;0.68;;;0.68;;
31210;SDS011;17836;50.948;3.946;2022-08-01T10:00:21;2.30;;;1.30;;
31210;SDS011;17836;50.948;3.946;2022-08-01T10:02:46;2.20;;;1.40;;
31210;SDS011;17836;50.948;3.946;2022-08-01T10:05:11;2.83;;;1.50;;
31210;SDS011;17836;50.948;3.946;2022-08-01T10:07:54;2.03;;;1.67;;
31210;SDS011;17836;50.948;3.946;2022-08-01T10:10:20;2.05;;;1.95;;
31210;SDS011;17836;50.948;3.946;2022-08-01T10:12:45;2.30;;;1.90;;
31210;SDS011;17836;50.948;3.946;2022-08-01T10:15:15;2.92;;;2.70;;
31210;SDS011;17836;50.948;3.946;2022-08-01T10:17:41;2.53;;;2.25;;
31210;SDS011;17836;50.948;3.946;2022-08-01T10:20:10;2.40;;;2.20;;
31210;SDS011;17836;50.948;3.946;2022-08-01T10:22:36;2.20;;;1.88;;
31210;SDS011;17836;50.948;3.946;2022-08-01T10:25:02;2.08;;;1.80;;
31210;SDS011;17836;50.948;3.946;2022-08-01T10:27:28;1.80;;;1.70;;
31210;SDS011;17836;50.948;3.946;2022-08-01T10:29:56;2.20;;;1.88;;
31210;SDS011;17836;50.948;3.946;2022-08-01T10:32:22;1.88;;;1.70;;
31210;SDS011;17836;50.948;3.946;2022-08-01T10:34:48;1.95;;;1.85;;
31210;SDS011;17836;50.948;3.946;2022-08-01T10:37:14;2.78;;;2.58;;
31210;SDS011;17836;50.948;3.946;2022-08-01T10:39:40;3.10;;;2.80;;
31210;SDS011;17836;50.948;3.946;2022-08-01T10:42:05;3.03;;;2.73;;
31210;SDS011;17836;50.948;3.946;2022-08-01T10:44:31;2.92;;;2.72;;
31210;SDS011;17836;50.948;3.946;2022-08-01T10:46:59;2.83;;;2.63;;
31210;SDS011;17836;50.948;3.946;2022-08-01T10:49:26;2.83;;;2.70;;
31210;SDS011;17836;50.948;3.946;2022-08-01T10:51:52;3.20;;;2.90;;
31210;SDS011;17836;50.948;3.946;2022-08-01T10:54:18;2.78;;;2.50;;
31210;SDS011;17836;50.948;3.946;2022-08-01T10:56:49;2.77;;;2.57;;
31210;SDS011;17836;50.948;3.946;2022-08-01T10:59:22;2.80;;;2.60;;
31210;SDS011;17836;50.948;3.946;2022-08-01T11:01:58;2.55;;;2.10;;
31210;SDS011;17836;50.948;3.946;2022-08-01T11:07:08;2.70;;;1.95;;
31210;SDS011;17836;50.948;3.946;2022-08-01T11:09:43;1.83;;;1.73;;
31210;SDS011;17836;50.948;3.946;2022-08-01T11:12:10;2.13;;;2.03;;
31210;SDS011;17836;50.948;3.946;2022-08-01T11:20:11;1.75;;;1.65;;
31210;SDS011;17836;50.948;3.946;2022-08-01T11:25:21;1.85;;;1.75;;
31210;SDS011;17836;50.948;3.946;2022-08-01T11:27:46;1.60;;;1.50;;
31210;SDS011;17836;50.948;3.946;2022-08-01T11:32:50;2.43;;;1.40;;
31210;SDS011;17836;50.948;3.946;2022-08-01T11:35:16;2.13;;;1.60;;
31210;SDS011;17836;50.948;3.946;2022-08-01T11:37:42;1.50;;;1.40;;
31210;SDS011;17836;50.948;3.946;2022-08-01T11:40:15;1.43;;;1.33;;
31210;SDS011;17836;50.948;3.946;2022-08-01T11:42:40;1.58;;;1.48;;
31210;SDS011;17836;50.948;3.946;2022-08-01T11:45:06;1.42;;;1.33;;
31210;SDS011;17836;50.948;3.946;2022-08-01T11:47:52;4.60;;;1.77;;
31210;SDS011;17836;50.948;3.946;2022-08-01T11:53:04;1.95;;;1.60;;
31210;SDS011;17836;50.948;3.946;2022-08-01T11:55:29;1.38;;;1.27;;
31210;SDS011;17836;50.948;3.946;2022-08-01T11:58:02;1.88;;;1.65;;
31210;SDS011;17836;50.948;3.946;2022-08-01T12:00:27;1.70;;;1.40;;
31210;SDS011;17836;50.948;3.946;2022-08-01T12:02:57;1.20;;;1.10;;
31210;SDS011;17836;50.948;3.946;2022-08-01T12:05:23;2.38;;;1.55;;
31210;SDS011;17836;50.948;3.946;2022-08-01T12:07:52;1.70;;;1.60;;
31210;SDS011;17836;50.948;3.946;2022-08-01T12:10:19;1.30;;;1.20;;
31210;SDS011;17836;50.948;3.946;2022-08-01T12:15:10;1.57;;;1.10;;
31210;SDS011;17836;50.948;3.946;2022-08-01T12:17:39;1.33;;;1.05;;
31210;SDS011;17836;50.948;3.946;2022-08-01T12:20:06;0.98;;;0.98;;
31210;SDS011;17836;50.948;3.946;2022-08-01T12:22:32;1.20;;;1.10;;
31210;SDS011;17836;50.948;3.946;2022-08-01T12:27:33;1.85;;;1.10;;
31210;SDS011;17836;50.948;3.946;2022-08-01T12:29:58;1.27;;;0.95;;
31210;SDS011;17836;50.948;3.946;2022-08-01T12:32:31;1.85;;;0.80;;
31210;SDS011;17836;50.948;3.946;2022-08-01T12:35:00;1.33;;;0.80;;
31210;SDS011;17836;50.948;3.946;2022-08-01T12:37:26;2.40;;;0.90;;
31210;SDS011;17836;50.948;3.946;2022-08-01T12:39:52;0.67;;;0.50;;
31210;SDS011;17836;50.948;3.946;2022-08-01T12:42:17;2.13;;;0.90;;
31210;SDS011;17836;50.948;3.946;2022-08-01T12:44:44;1.60;;;0.70;;
31210;SDS011;17836;50.948;3.946;2022-08-01T12:47:10;0.85;;;0.70;;
31210;SDS011;17836;50.948;3.946;2022-08-01T12:49:36;0.85;;;0.73;;
31210;SDS011;17836;50.948;3.946;2022-08-01T12:52:04;1.65;;;0.80;;
31210;SDS011;17836;50.948;3.946;2022-08-01T12:54:29;1.30;;;0.90;;
31210;SDS011;17836;50.948;3.946;2022-08-01T12:56:55;1.33;;;0.90;;
31210;SDS011;17836;50.948;3.946;2022-08-01T12:59:26;1.30;;;0.77;;
31210;SDS011;17836;50.948;3.946;2022-08-01T13:01:52;1.75;;;0.80;;
31210;SDS011;17836;50.948;3.946;2022-08-01T13:04:18;1.00;;;0.77;;
31210;SDS011;17836;50.948;3.946;2022-08-01T13:06:43;0.98;;;0.70;;
31210;SDS011;17836;50.948;3.946;2022-08-01T13:09:09;0.90;;;0.80;;
31210;SDS011;17836;50.948;3.946;2022-08-01T13:11:38;0.60;;;0.55;;
31210;SDS011;17836;50.948;3.946;2022-08-01T13:14:04;1.08;;;0.85;;
31210;SDS011;17836;50.948;3.946;2022-08-01T13:16:29;0.85;;;0.80;;
31210;SDS011;17836;50.948;3.946;2022-08-01T13:18:56;1.00;;;0.90;;
31210;SDS011;17836;50.948;3.946;2022-08-01T13:21:22;1.88;;;0.80;;
31210;SDS011;17836;50.948;3.946;2022-08-01T13:24:04;1.23;;;0.65;;
31210;SDS011;17836;50.948;3.946;2022-08-01T13:26:42;1.55;;;0.80;;
31210;SDS011;17836;50.948;3.946;2022-08-01T13:29:08;1.48;;;0.80;;
31210;SDS011;17836;50.948;3.946;2022-08-01T13:31:38;2.15;;;0.70;;
31210;SDS011;17836;50.948;3.946;2022-08-01T13:34:04;1.85;;;0.90;;
31210;SDS011;17836;50.948;3.946;2022-08-01T13:36:29;1.67;;;0.60;;
31210;SDS011;17836;50.948;3.946;2022-08-01T13:38:56;0.82;;;0.80;;
31210;SDS011;17836;50.948;3.946;2022-08-01T13:41:40;1.27;;;0.73;;
31210;SDS011;17836;50.948;3.946;2022-08-01T13:44:05;1.05;;;0.70;;
31210;SDS011;17836;50.948;3.946;2022-08-01T13:46:33;4.45;;;1.40;;
31210;SDS011;17836;50.948;3.946;2022-08-01T13:48:59;1.65;;;0.75;;
31210;SDS011;17836;50.948;3.946;2022-08-01T13:51:24;1.60;;;0.77;;
31210;SDS011;17836;50.948;3.946;2022-08-01T13:53:50;1.60;;;1.37;;
31210;SDS011;17836;50.948;3.946;2022-08-01T13:56:15;1.17;;;0.87;;
31210;SDS011;17836;50.948;3.946;2022-08-01T14:01:11;1.10;;;0.98;;
31210;SDS011;17836;50.948;3.946;2022-08-01T14:03:37;0.65;;;0.60;;
31210;SDS011;17836;50.948;3.946;2022-08-01T14:06:03;0.65;;;0.60;;
31210;SDS011;17836;50.948;3.946;2022-08-01T14:08:28;1.20;;;0.90;;
31210;SDS011;17836;50.948;3.946;2022-08-01T14:10:53;2.97;;;1.00;;
31210;SDS011;17836;50.948;3.946;2022-08-01T14:13:22;1.85;;;0.82;;
31210;SDS011;17836;50.948;3.946;2022-08-01T14:15:47;1.50;;;0.80;;
31210;SDS011;17836;50.948;3.946;2022-08-01T14:18:13;0.60;;;0.60;;
31210;SDS011;17836;50.948;3.946;2022-08-01T14:20:38;0.82;;;0.60;;
31210;SDS011;17836;50.948;3.946;2022-08-01T14:23:04;0.88;;;0.73;;
31210;SDS011;17836;50.948;3.946;2022-08-01T14:25:29;1.63;;;0.70;;
31210;SDS011;17836;50.948;3.946;2022-08-01T14:27:54;0.70;;;0.70;;
31210;SDS011;17836;50.948;3.946;2022-08-01T14:30:20;1.10;;;0.60;;
31210;SDS011;17836;50.948;3.946;2022-08-01T14:32:46;2.35;;;0.82;;
31210;SDS011;17836;50.948;3.946;2022-08-01T14:35:11;1.43;;;0.80;;
31210;SDS011;17836;50.948;3.946;2022-08-01T14:37:37;0.70;;;0.70;;
31210;SDS011;17836;50.948;3.946;2022-08-01T14:40:02;0.77;;;0.77;;
31210;SDS011;17836;50.948;3.946;2022-08-01T14:42:30;2.40;;;0.60;;
31210;SDS011;17836;50.948;3.946;2022-08-01T14:44:55;1.77;;;0.80;;
31210;SDS011;17836;50.948;3.946;2022-08-01T14:47:21;1.67;;;0.70;;
31210;SDS011;17836;50.948;3.946;2022-08-01T14:49:47;0.93;;;0.45;;
31210;SDS011;17836;50.948;3.946;2022-08-01T14:52:12;0.63;;;0.57;;
31210;SDS011;17836;50.948;3.946;2022-08-01T14:54:40;1.03;;;0.70;;
31210;SDS011;17836;50.948;3.946;2022-08-01T14:57:05;0.50;;;0.40;;
31210;SDS011;17836;50.948;3.946;2022-08-01T14:59:31;0.73;;;0.43;;
31210;SDS011;17836;50.948;3.946;2022-08-01T15:01:56;1.63;;;0.60;;
31210;SDS011;17836;50.948;3.946;2022-08-01T15:04:22;3.45;;;0.70;;
31210;SDS011;17836;50.948;3.946;2022-08-01T15:06:48;0.82;;;0.60;;
31210;SDS011;17836;50.948;3.946;2022-08-01T15:09:13;0.70;;;0.70;;
31210;SDS011;17836;50.948;3.946;2022-08-01T15:11:39;2.03;;;0.60;;
31210;SDS011;17836;50.948;3.946;2022-08-01T15:14:04;0.97;;;0.50;;
31210;SDS011;17836;50.948;3.946;2022-08-01T15:16:47;1.38;;;0.60;;
31210;SDS011;17836;50.948;3.946;2022-08-01T15:19:14;1.70;;;1.20;;
31210;SDS011;17836;50.948;3.946;2022-08-01T15:21:39;2.17;;;0.82;;
31210;SDS011;17836;50.948;3.946;2022-08-01T15:24:04;0.95;;;0.60;;